Juara, Brazil
Current Conditions -  °F | °C
As of 2:00 PM on Saturday 25 Oct 2014 (Local Time) from SBAT Reporting Station
Thunderstorm Thunderstorm  
Wind Chill: 90°   Ceiling: 2500
Heat Index: 96°   Visibility: 6mi
Dew Point: 72°   Wind: 5mph
Humidity: 55%   Direction: 240°WSW
Pressure: 29.83"   Gusts: NA
Location:  11.26°S, 57.52°W
Report Text: SBAT 251700Z 24004KT 9999 TS VCSH BKN025 FEW030CB SCT080 32/22 Q1010
Loading
Personal Weather Stations






























Interactive Weather Map
Tropical Storm Tracking
New forecast layout! Learn more

10-Day Weather Forecast

Advertisements
Track Severe Weather on mobile